Record high temperature 42.2°C Record low temperature -14.6°C Record high gust 76.2 km/h Record high average 96.8 km/h Record daily rain 63.7 mm Record low windchill -17.5°C Record high barometer 1046.0 hPa Record low barometer 960.0 hPa
Daily high pressure 1009.0 hPa Daily low pressure 1009.0 hPa Daily low windchill 11.2°C Daily high heat index 12.2°C Daily high gust speed 3.9 kmh S Daily high average speed 0.0 kmh WNW

This page is updated from recent data collected by a WMR200 weather station Use the Reload or Refresh facility on your browser to retrieve the latest data.

Status report of weather station: Bienvenue sur la Station Météo de Godarville



Weather report/warning/Metars

Alexandroupoli Airport , Greece (LGAL) 40-51N 025-55E 3M
Jul 03, 2022 - 06:50 PM EDT / 2022.07.03 2250 UTC
Wind: from the NNE (020 degrees) at 7 MPH (6 KT):0
Visibility: greater than 7 mile(s):0
Temperature: 69 F (21 C)
Dew Point: 53 F (12 C)
Relative Humidity: 56%
Pressure (altimeter): 30.00 in. Hg (1016 hPa)
ob: LGAL 032250Z 02006KT CAVOK 21/12 Q1016
cycle: 23

Charleroi / Gosselies, Belgium (EBCI) 50-28N 004-27E 192M
Jul 03, 2022 - 06:50 PM EDT / 2022.07.03 2250 UTC
Wind: from the WSW (250 degrees) at 2 MPH (2 KT):0
Visibility: greater than 7 mile(s):0
Temperature: 55 F (13 C)
Dew Point: 50 F (10 C)
Relative Humidity: 81%
Pressure (altimeter): 30.15 in. Hg (1021 hPa)
ob: EBCI 032250Z 25002KT CAVOK 13/10 Q1021 NOSIG
cycle: 23

Bruxelles National, Belgium (EBBR) 50-54N 004-32E 58M
Jul 03, 2022 - 06:50 PM EDT / 2022.07.03 2250 UTC
Wind: Calm:0
Visibility: greater than 7 mile(s):0
Temperature: 55 F (13 C)
Dew Point: 50 F (10 C)
Relative Humidity: 81%
Pressure (altimeter): 30.15 in. Hg (1021 hPa)
ob: EBBR 032250Z 00000KT CAVOK 13/10 Q1021 NOSIG
cycle: 23

Koksijde, Belgium (EBFN) 51-05N 002-39E 9M
Jul 03, 2022 - 06:55 PM EDT / 2022.07.03 2255 UTC
Wind: from the SW (220 degrees) at 6 MPH (5 KT):0
Visibility: greater than 7 mile(s):0
Sky conditions: partly cloudy
Temperature: 53 F (12 C)
Dew Point: 50 F (10 C)
Relative Humidity: 87%
Pressure (altimeter): 30.15 in. Hg (1021 hPa)
ob: EBFN 032255Z AUTO 22005KT 9999 SCT089/// 12/10 Q1021 BLU
cycle: 23

Poznan, Poland (EPPO) 52-25N 016-50E 92M
Jul 03, 2022 - 07:00 PM EDT / 2022.07.03 2300 UTC
Wind: from the ESE (110 degrees) at 6 MPH (5 KT):0
Visibility: greater than 7 mile(s):0
Temperature: 62 F (17 C)
Dew Point: 53 F (12 C)
Relative Humidity: 72%
Pressure (altimeter): 30.00 in. Hg (1016 hPa)
ob: EPPO 032300Z 11005KT CAVOK 17/12 Q1016 
cycle: 23



Coucher du Soleil:
21:57:12

Lever de Lune:
09:38:56 03/07/22

Coucher de Lune:
00:35:09 04/07/22

Premier Quartier 7 juillet 2022
Pleine Lune 13 juillet 2022
Dernier Quartier 20 juillet 2022
Nouvelle Lune 28 juillet 2022
Âge de lune : 4 jours,8 heures,12 minutes,20%
Les heures du jour possible étaient aujourd’hui 16:21



Use the RELOAD facility on your browser to retrieve the latest data.

Click here for a daily update of the averages/extremes to date for the month
Created by "Weather Display" software version 10.37P at this start time/date 09:29:10 26/06/2022